Flight Track Log - Related Links

Times and Time Zones

All times are in EDT time to prevent confusion due to time zone crossing. See the SWA1903 flight status page for this flight to view local times or setup timezone preferences in your user account.

Time Position Orientation Groundspeed Altitude Reporting Facility
EDT Latitude Longitude Course Direction KTS MPH feet Rate Location/Type
Fri 10:00:40 AM 42.2036 -83.3556 223° Southwest 149 171 1,300  Level Cleveland Center
Fri 10:01:17 AM 42.1844 -83.3797 223° Southwest 187 215 2,200 2,041 Climbing Cleveland Center
Fri 10:02:17 AM 42.1411 -83.4394 226° Southwest 239 275 4,600 2,713 Climbing Cleveland Center
Fri 10:03:12 AM 42.1375 -83.5067 266° West 251 289 7,400 2,870 Climbing Cleveland Center
Fri 10:04:12 AM 42.1747 -83.5925 300° West 264 304 10,100 2,268 Climbing Cleveland Center
Fri 10:04:34 AM 42.1806 -83.6150 289° West 270 311 10,500 1,279 Climbing Cleveland Center
Fri 10:05:13 AM 42.2181 -83.6925 303° West 334 384 11,400 1,300 Climbing Cleveland Center
Fri 10:05:34 AM 42.2256 -83.7183 291° West 337 388 11,800 1,185 Climbing Cleveland Center
Fri 10:06:34 AM 42.2744 -83.8331 300° West 361 415 13,000 1,400 Climbing Cleveland Center
Fri 10:07:34 AM 42.3214 -83.9447 300° West 355 409 14,600 2,150 Climbing Cleveland Center
Fri 10:08:34 AM 42.3722 -84.0628 300° West 355 409 17,300 2,650 Climbing Cleveland Center
Fri 10:09:34 AM 42.4203 -84.1892 297° West 360 414 19,900 2,200 Climbing Cleveland Center
Fri 10:10:34 AM 42.4283 -84.3306 274° West 365 420 21,700 1,800 Climbing Cleveland Center
Fri 10:11:34 AM 42.4317 -84.4769 272° West 376 433 23,500 2,450 Climbing Cleveland Center
Fri 10:12:34 AM 42.4372 -84.6236 273° West 390 449 26,600 3,000 Climbing Cleveland Center
Fri 10:12:50 AM 42.4397 -84.6681 274° West 390 449 27,300 2,308 Climbing Chicago Center
Fri 10:13:52 AM 42.4425 -84.8039 272° West 367 422 29,600 1,839 Climbing Chicago Center
Fri 10:14:54 AM 42.4464 -84.9367 272° West 356 410 31,100 1,065 Climbing Chicago Center
Fri 10:15:56 AM 42.4483 -85.0811 271° West 377 434 31,800 1,452 Climbing Chicago Center
Fri 10:16:58 AM 42.4531 -85.2572 272° West 389 448 34,100 1,694 Climbing Chicago Center
Fri 10:18:00 AM 42.4556 -85.3969 271° West 376 433 35,300 919 Climbing Chicago Center
Fri 10:19:02 AM 42.4569 -85.5397 271° West 378 435 36,000 339 Climbing Chicago Center
Fri 10:20:04 AM 42.4606 -85.6806 272° West 376 433 36,000  Level Chicago Center
Fri 10:21:06 AM 42.4622 -85.8236 271° West 378 435 36,000  Level Chicago Center
Fri 10:22:08 AM 42.4631 -85.9664 271° West 379 436 36,000  Level Chicago Center
Fri 10:23:10 AM 42.4636 -86.1117 270° West 383 441 36,000  Level Chicago Center
Fri 10:24:12 AM 42.4442 -86.2792 261° West 377 434 36,000  Level Chicago Center
Fri 10:25:14 AM 42.4244 -86.4197 259° West 380 437 36,000  Level Chicago Center
Fri 10:26:16 AM 42.3897 -86.5517 250° West 376 433 36,000  Level Chicago Center
Fri 10:27:18 AM 42.3556 -86.6842 251° West 375 432 36,000  Level Chicago Center
Fri 10:28:20 AM 42.3192 -86.8350 252° West 377 434 36,000  Level Chicago Center
Fri 10:29:22 AM 42.2856 -86.9689 251° West 379 436 36,000  Level Chicago Center
Fri 10:30:24 AM 42.2478 -87.1014 249° West 382 440 36,000  Level Chicago Center
Fri 10:31:26 AM 42.2128 -87.2378 251° West 387 445 36,000  Level Chicago Center
Fri 10:32:28 AM 42.1778 -87.3736 251° West 388 447 36,000  Level Chicago Center
Fri 10:33:30 AM 42.1344 -87.5375 250° West 392 451 36,000  Level Chicago Center
Fri 10:34:32 AM 42.0983 -87.6739 250° West 392 451 36,000  Level Chicago Center
Fri 10:35:34 AM 42.0625 -87.8086 250° West 389 448 36,000  Level Chicago Center
Fri 10:36:36 AM 42.0269 -87.9436 251° West 387 445 36,000  Level Chicago Center
Fri 10:37:38 AM 41.9903 -88.0786 250° West 389 448 36,000  Level Chicago Center
Fri 10:38:40 AM 41.9464 -88.2403 250° West 389 448 36,000  Level Chicago Center
Fri 10:39:42 AM 41.9103 -88.3764 250° West 392 451 36,000 290 Level Chicago Center
Fri 10:40:44 AM 41.8742 -88.5092 250° West 386 444 36,600 581 Climbing Chicago Center
Fri 10:41:46 AM 41.8358 -88.6478 250° West 398 458 37,200 677 Climbing Chicago Center
Fri 10:42:48 AM 41.7969 -88.7864 249° West 402 463 38,000 387 Climbing Chicago Center
Fri 10:43:50 AM 41.7522 -88.9497 250° West 395 455 38,000  Level Chicago Center
Fri 10:44:52 AM 41.7133 -89.0869 249° West 396 456 38,000  Level Chicago Center
Fri 10:45:54 AM 41.6742 -89.2231 249° West 395 455 38,000  Level Chicago Center
Fri 10:46:56 AM 41.6361 -89.3600 250° West 396 456 38,000  Level Chicago Center
Fri 10:47:57 AM 41.5986 -89.4942 250° West 391 450 38,000  Level Chicago Center
Fri 10:48:59 AM 41.5519 -89.6561 249° West 391 450 38,000  Level Chicago Center
Fri 10:50:01 AM 41.5142 -89.7897 249° West 388 447 38,000  Level Chicago Center
Fri 10:51:03 AM 41.4744 -89.9228 248° West 388 447 38,000  Level Chicago Center
Fri 10:52:05 AM 41.4344 -90.0578 248° West 391 450 38,000  Level Chicago Center
Fri 10:53:07 AM 41.3986 -90.1925 251° West 391 450 38,000  Level Chicago Center
Fri 10:54:09 AM 41.3475 -90.3567 248° West 402 463 38,000  Level Chicago Center
Fri 10:55:11 AM 41.3083 -90.4919 249° West 399 459 38,000  Level Chicago Center
Fri 10:56:13 AM 41.2678 -90.6281 248° West 398 458 38,000  Level Chicago Center
Fri 10:57:15 AM 41.2275 -90.7631 248° West 396 456 38,000  Level Chicago Center
Fri 10:58:17 AM 41.1869 -90.9003 249° West 399 459 38,000  Level Chicago Center
Fri 10:59:20 AM 41.1375 -91.0636 248° West 399 459 38,000  Level Chicago Center
Fri 11:00:22 AM 41.0964 -91.1992 248° West 399 459 38,000  Level Chicago Center
Fri 11:01:24 AM 41.0539 -91.3353 248° West 400 460 38,000  Level Chicago Center
Fri 11:02:26 AM 41.0122 -91.4767 249° West 404 465 38,000  Level Chicago Center
Fri 11:03:28 AM 40.9672 -91.6056 245° Southwest 397 457 38,000  Level Chicago Center
Fri 11:04:30 AM 40.9261 -91.7419 248° West 402 463 38,000  Level Chicago Center
Fri 11:05:32 AM 40.8750 -91.9033 247° West 402 463 38,000  Level Chicago Center
Fri 11:06:33 AM 40.8339 -92.0397 248° West 404 465 38,000  Level Chicago Center
Fri 11:07:35 AM 40.7925 -92.1756 248° West 405 466 38,000  Level Chicago Center
Fri 11:08:37 AM 40.7503 -92.3081 247° West 400 460 38,000  Level Chicago Center
Fri 11:09:39 AM 40.7086 -92.4428 248° West 403 464 38,000  Level Chicago Center
Fri 11:10:41 AM 40.6578 -92.6019 247° West 401 461 38,000  Level Chicago Center
Fri 11:11:42 AM 40.6158 -92.7331 247° West 398 458 38,000  Level Chicago Center
Fri 11:12:21 AM 40.5911 -92.8064 246° West 396 456 38,000  Level Kansas City Center
Fri 11:13:23 AM 40.5425 -92.9550 247° West 395 455 38,000  Level Kansas City Center
Fri 11:14:24 AM 40.4961 -93.0989 247° West 397 457 38,000  Level Kansas City Center
Fri 11:15:26 AM 40.4533 -93.2317 247° West 400 460 38,000  Level Kansas City Center
Fri 11:16:28 AM 40.4100 -93.3625 247° West 397 457 38,000  Level Kansas City Center
Fri 11:17:30 AM 40.3669 -93.4958 247° West 399 459 38,000  Level Kansas City Center
Fri 11:18:32 AM 40.3222 -93.6278 246° West 401 461 38,000  Level Kansas City Center
Fri 11:19:34 AM 40.2681 -93.7878 246° West 404 465 38,000  Level Kansas City Center
Fri 11:20:36 AM 40.2247 -93.9197 247° West 400 460 38,000  Level Kansas City Center
Fri 11:21:38 AM 40.1808 -94.0544 247° West 404 465 38,000  Level Kansas City Center
Fri 11:22:40 AM 40.1306 -94.1936 245° Southwest 406 467 38,000  Level Kansas City Center
Fri 11:23:42 AM 40.0869 -94.3219 246° West 404 465 38,000  Level Kansas City Center
Fri 11:24:44 AM 40.0356 -94.4728 246° West 408 470 38,000  Level Kansas City Center
Fri 11:25:46 AM 39.9914 -94.6017 246° West 408 470 38,000  Level Kansas City Center
Fri 11:26:48 AM 39.9403 -94.7522 246° West 408 470 38,000  Level Kansas City Center
Fri 11:27:50 AM 39.8961 -94.8778 245° Southwest 401 461 38,000  Level Kansas City Center
Fri 11:28:52 AM 39.8458 -95.0239 246° West 398 458 38,000  Level Kansas City Center
Fri 11:29:54 AM 39.8022 -95.1489 246° West 396 456 38,000  Level Kansas City Center
Fri 11:30:56 AM 39.7503 -95.2942 245° Southwest 399 459 38,000  Level Kansas City Center
Fri 11:31:58 AM 39.7061 -95.4200 246° West 402 463 38,000  Level Kansas City Center
Fri 11:33:00 AM 39.6542 -95.5686 246° West 406 467 38,000  Level Kansas City Center
Fri 11:34:02 AM 39.6078 -95.6964 245° Southwest 411 473 38,000  Level Kansas City Center
Fri 11:35:04 AM 39.5539 -95.8464 245° Southwest 412 474 38,000  Level Kansas City Center
Fri 11:36:06 AM 39.5081 -95.9744 245° Southwest 412 474 38,000  Level Kansas City Center
Fri 11:37:08 AM 39.4536 -96.1242 245° Southwest 412 474 38,000  Level Kansas City Center
Fri 11:38:10 AM 39.4075 -96.2511 245° Southwest 411 473 38,000  Level Kansas City Center
Fri 11:39:12 AM 39.3583 -96.3828 244° Southwest 409 471 38,000  Level Kansas City Center
Fri 11:40:14 AM 39.3064 -96.5267 245° Southwest 410 472 38,000  Level Kansas City Center
Fri 11:41:16 AM 39.2511 -96.6750 244° Southwest 410 472 38,000  Level Kansas City Center
Fri 11:42:18 AM 39.2042 -96.8014 244° Southwest 410 472 38,000  Level Kansas City Center
Fri 11:43:21 AM 39.1489 -96.9519 245° Southwest 415 478 38,000  Level Kansas City Center
Fri 11:44:23 AM 39.1006 -97.0800 244° Southwest 416 479 38,000  Level Kansas City Center
Fri 11:45:25 AM 39.0450 -97.2306 245° Southwest 417 480 38,000  Level Kansas City Center
Fri 11:46:27 AM 38.9967 -97.3586 244° Southwest 417 480 38,000  Level Kansas City Center
Fri 11:47:29 AM 38.9414 -97.5050 244° Southwest 418 481 38,000  Level Kansas City Center
Fri 11:48:31 AM 38.8911 -97.6358 244° Southwest 416 479 38,000  Level Kansas City Center
Fri 11:49:33 AM 38.8331 -97.7847 243° Southwest 418 481 38,000  Level Kansas City Center
Fri 11:50:35 AM 38.7883 -97.9058 245° Southwest 421 484 38,000  Level Kansas City Center
Fri 11:51:37 AM 38.7358 -98.0397 243° Southwest 422 486 38,000  Level Kansas City Center
Fri 11:52:39 AM 38.6736 -98.2014 244° Southwest 424 488 38,000  Level Kansas City Center
Fri 11:53:41 AM 38.6222 -98.3364 244° Southwest 425 489 38,000  Level Kansas City Center
Fri 11:54:43 AM 38.5697 -98.4717 244° Southwest 426 490 38,000  Level Kansas City Center
Fri 11:55:45 AM 38.5167 -98.6058 243° Southwest 426 490 38,000  Level Kansas City Center
Fri 11:56:47 AM 38.4636 -98.7400 243° Southwest 425 489 38,000  Level Kansas City Center
Fri 11:57:49 AM 38.4100 -98.8733 243° Southwest 425 489 38,000  Level Kansas City Center
Fri 11:58:51 AM 38.3256 -99.0175 233° Southwest 428 493 38,000  Level Kansas City Center
Fri 11:59:53 AM 38.2453 -99.1275 227° Southwest 427 491 38,000  Level Kansas City Center
Fri 12:00:55 PM 38.1650 -99.2383 227° Southwest 427 491 38,000  Level Kansas City Center
Fri 12:01:57 PM 38.0842 -99.3486 227° Southwest 427 491 38,000  Level Kansas City Center
Fri 12:03:00 PM 38.0022 -99.4589 227° Southwest 427 491 38,000  Level Kansas City Center
Fri 12:04:02 PM 37.9053 -99.5925 227° Southwest 428 493 38,000  Level Kansas City Center
Fri 12:05:04 PM 37.8275 -99.6989 227° Southwest 429 494 38,000  Level Kansas City Center
Fri 12:06:06 PM 37.7361 -99.8242 227° Southwest 432 497 38,000  Level Kansas City Center
Fri 12:07:08 PM 37.6717 -99.9442 236° Southwest 435 501 38,000  Level Kansas City Center
Fri 12:08:10 PM 37.6253 -100.0764 246° West 432 497 38,000  Level Kansas City Center
Fri 12:09:12 PM 37.5714 -100.2261 246° West 423 487 38,000  Level Kansas City Center
Fri 12:10:14 PM 37.5250 -100.3567 246° West 422 486 38,000  Level Kansas City Center
Fri 12:11:16 PM 37.4689 -100.5086 245° Southwest 425 489 38,000  Level Kansas City Center
Fri 12:12:18 PM 37.4214 -100.6389 245° Southwest 424 488 38,000  Level Kansas City Center
Fri 12:13:20 PM 37.3653 -100.7911 245° Southwest 425 489 38,000  Level Kansas City Center
Fri 12:14:22 PM 37.3175 -100.9222 245° Southwest 427 491 38,000  Level Kansas City Center
Fri 12:15:24 PM 37.2608 -101.0753 245° Southwest 429 494 38,000  Level Kansas City Center
Fri 12:16:26 PM 37.2117 -101.2064 245° Southwest 432 497 38,000  Level Kansas City Center
Fri 12:17:28 PM 37.1631 -101.3378 245° Southwest 432 497 38,000  Level Kansas City Center
Fri 12:18:13 PM 37.1228 -101.4492 246° West 434 499 38,000  Level Albuquerque Center
Fri 12:19:15 PM 37.0642 -101.6006 244° Southwest 431 496 38,000  Level Albuquerque Center
Fri 12:20:17 PM 37.0289 -101.7378 252° West 432 497 38,000  Level Albuquerque Center
Fri 12:21:19 PM 36.9978 -101.8781 255° West 435 501 38,000  Level Albuquerque Center
Fri 12:22:21 PM 36.9592 -102.0375 253° West 431 496 38,000  Level Albuquerque Center
Fri 12:23:23 PM 36.9261 -102.1744 253° West 430 495 38,000  Level Albuquerque Center
Fri 12:24:25 PM 36.8878 -102.3328 253° West 428 493 38,000  Level Albuquerque Center
Fri 12:25:27 PM 36.8536 -102.4597 251° West 425 489 38,000  Level Albuquerque Center
Fri 12:26:29 PM 36.8147 -102.6197 253° West 433 498 38,000  Level Albuquerque Center
Fri 12:27:31 PM 36.7750 -102.7806 253° West 433 498 38,000  Level Albuquerque Center
Fri 12:28:33 PM 36.7411 -102.9153 253° West 428 493 38,000  Level Albuquerque Center
Fri 12:29:35 PM 36.7058 -103.0517 252° West 430 495 38,000  Level Albuquerque Center
Fri 12:30:37 PM 36.6664 -103.2117 253° West 432 497 38,000  Level Albuquerque Center
Fri 12:31:39 PM 36.6317 -103.3447 252° West 429 494 38,000  Level Albuquerque Center
Fri 12:32:41 PM 36.5950 -103.4867 252° West 427 491 38,000  Level Albuquerque Center
Fri 12:33:43 PM 36.5522 -103.6511 252° West 426 490 38,000  Level Albuquerque Center
Fri 12:34:45 PM 36.5150 -103.7936 252° West 429 494 38,000  Level Albuquerque Center
Fri 12:35:47 PM 36.4789 -103.9358 253° West 428 493 38,000  Level Albuquerque Center
Fri 12:36:49 PM 36.4414 -104.0767 252° West 427 491 38,000  Level Albuquerque Center
Fri 12:37:51 PM 36.4042 -104.2131 251° West 421 484 38,000  Level Albuquerque Center
Fri 12:38:53 PM 36.3661 -104.3508 251° West 419 482 38,000  Level Albuquerque Center
Fri 12:39:55 PM 36.3217 -104.5169 252° West 429 494 38,000  Level Albuquerque Center
Fri 12:40:57 PM 36.2853 -104.6542 252° West 423 487 38,000  Level Albuquerque Center
Fri 12:41:59 PM 36.2478 -104.7981 252° West 432 497 38,000  Level Albuquerque Center
Fri 12:43:01 PM 36.2069 -104.9417 251° West 438 504 38,000  Level Albuquerque Center
Fri 12:44:03 PM 36.1692 -105.0806 251° West 429 494 38,000  Level Albuquerque Center
Fri 12:45:05 PM 36.1297 -105.2217 251° West 430 495 38,000  Level Albuquerque Center
Fri 12:46:08 PM 36.0850 -105.3850 251° West 428 493 38,000  Level Albuquerque Center
Fri 12:47:10 PM 36.0453 -105.5253 251° West 429 494 38,000  Level Albuquerque Center
Fri 12:48:12 PM 36.0081 -105.6550 251° West 430 495 38,000  Level Albuquerque Center
Fri 12:49:14 PM 35.9700 -105.7947 251° West 430 495 38,000  Level Albuquerque Center
Fri 12:50:16 PM 35.9186 -105.9272 244° Southwest 430 495 38,000  Level Albuquerque Center
Fri 12:51:18 PM 35.8450 -106.0811 239° Southwest 435 501 38,000  Level Albuquerque Center
Fri 12:52:20 PM 35.7811 -106.2128 239° Southwest 437 503 38,000  Level Albuquerque Center
Fri 12:53:22 PM 35.7217 -106.3383 240° Southwest 441 507 38,000  Level Albuquerque Center
Fri 12:54:24 PM 35.6547 -106.4839 241° Southwest 438 504 38,000  Level Albuquerque Center
Fri 12:55:26 PM 35.6236 -106.6106 253° West 435 501 38,000  Level Albuquerque Center
Fri 12:56:28 PM 35.5872 -106.7511 252° West 435 501 38,000  Level Albuquerque Center
Fri 12:57:30 PM 35.5408 -106.9217 252° West 440 506 38,000  Level Albuquerque Center
Fri 12:58:32 PM 35.5036 -107.0647 252° West 443 510 38,000  Level Albuquerque Center
Fri 12:59:34 PM 35.4617 -107.2142 251° West 443 510 38,000  Level Albuquerque Center
Fri 01:00:36 PM 35.4247 -107.3531 252° West 446 513 38,000  Level Albuquerque Center
Fri 01:01:38 PM 35.3808 -107.5153 252° West 447 514 38,000  Level Albuquerque Center
Fri 01:02:40 PM 35.3419 -107.6542 251° West 448 516 38,000  Level Albuquerque Center
Fri 01:03:42 PM 35.2972 -107.8161 251° West 448 516 38,000  Level Albuquerque Center
Fri 01:04:44 PM 35.2589 -107.9544 251° West 448 516 38,000  Level Albuquerque Center
Fri 01:05:46 PM 35.2144 -108.1144 251° West 445 512 38,000  Level Albuquerque Center
Fri 01:06:48 PM 35.1753 -108.2503 251° West 443 510 38,000 -387 Level Albuquerque Center
Fri 01:07:50 PM 35.1303 -108.4122 251° West 447 514 37,200 -484 Descending Albuquerque Center
Fri 01:08:52 PM 35.0886 -108.5564 251° West 460 529 37,000 -97 Descending Albuquerque Center
Fri 01:09:54 PM 35.0467 -108.7028 251° West 469 540 37,000  Level Albuquerque Center
Fri 01:10:56 PM 35.0006 -108.8669 251° West 460 529 37,000  Level Albuquerque Center
Fri 01:11:58 PM 34.9611 -109.0036 251° West 450 518 37,000 -484 Level Albuquerque Center
Fri 01:13:00 PM 34.9142 -109.1650 251° West 449 517 36,000 -484 Descending Albuquerque Center
Fri 01:14:02 PM 34.8725 -109.3056 250° West 456 525 36,000  Level Albuquerque Center
Fri 01:15:04 PM 34.8250 -109.4697 251° West 458 527 36,000  Level Albuquerque Center
Fri 01:16:06 PM 34.7819 -109.6044 249° West 450 518 36,000  Level Albuquerque Center
Fri 01:17:08 PM 34.7339 -109.7703 251° West 459 528 36,000  Level Albuquerque Center
Fri 01:18:10 PM 34.6889 -109.9111 249° West 464 534 36,000  Level Albuquerque Center
Fri 01:19:12 PM 34.6369 -110.0469 245° Southwest 463 533 36,000 -1,258 Level Albuquerque Center
Fri 01:20:14 PM 34.5808 -110.2119 248° West 471 542 33,400 -2,226 Descending Albuquerque Center
Fri 01:21:16 PM 34.5269 -110.3400 243° Southwest 448 516 31,400 -2,032 Descending Albuquerque Center
Fri 01:22:18 PM 34.4758 -110.4831 247° West 440 506 29,200 -2,081 Descending Albuquerque Center
Fri 01:23:20 PM 34.4269 -110.6186 246° West 441 507 27,100 -1,935 Descending Albuquerque Center
Fri 01:24:22 PM 34.3758 -110.7517 245° Southwest 438 504 25,200 -1,742 Descending Albuquerque Center
Fri 01:25:24 PM 34.2844 -110.8933 232° Southwest 446 513 23,500 -2,081 Descending Albuquerque Center
Fri 01:26:26 PM 34.2006 -110.9953 225° Southwest 436 502 20,900 -2,274 Descending Albuquerque Center
Fri 01:27:28 PM 34.1222 -111.0958 227° Southwest 420 483 18,800 -1,645 Descending Albuquerque Center
Fri 01:28:30 PM 34.0528 -111.1867 227° Southwest 378 435 17,500 -1,548 Descending Albuquerque Center
Fri 01:29:32 PM 33.9856 -111.2728 227° Southwest 358 412 15,600 -1,694 Descending Albuquerque Center
Fri 01:30:34 PM 33.9208 -111.3553 227° Southwest 344 396 14,000 -1,597 Descending Albuquerque Center
Fri 01:31:36 PM 33.8553 -111.4294 223° Southwest 327 376 12,300 -1,645 Descending Albuquerque Center
Fri 01:32:38 PM 33.7706 -111.5003 215° Southwest 309 356 10,600 -1,403 Descending Albuquerque Center
Fri 01:33:40 PM 33.7036 -111.5581 216° Southwest 299 344 9,400 -871 Descending Albuquerque Center
Fri 01:34:42 PM 33.6392 -111.6000 208° Southwest 265 305 8,800 -823 Descending Albuquerque Center
Fri 01:35:44 PM 33.5769 -111.6308 202° Southwest 245 282 7,700 -1,113 Descending Albuquerque Center
Fri 01:36:46 PM 33.5150 -111.6603 202° Southwest 240 276 6,500 -1,113 Descending Albuquerque Center
Fri 01:37:48 PM 33.4764 -111.7183 231° Southwest 244 281 5,400 -1,016 Descending Albuquerque Center
Fri 01:38:50 PM 33.4511 -111.7869 246° West 230 265 4,400 -912 Descending Albuquerque Center
Fri 01:39:53 PM 33.4417 -111.8644 262° West 207 238 3,500 -1,008 Descending Albuquerque Center
Fri 01:40:55 PM 33.4425 -111.9233 271° West 189 217 2,300 -919 Descending Albuquerque Center
Fri 01:41:57 PM 33.4417 -111.9739 269° West 172 198 1,600 -677 Descending Albuquerque Center
Fri 01:43:00 PM 33.4343 -112.0116 270° West  Level Estimated
Fri 01:50:00 PM 33.4343 -112.0116 90° East  Level Estimated

Login

Don't have an account? Register now (free) for customized features, flight alerts, and more!